Main page
METAR-TAF:

METAR-TAF

Airports :

Patrick Air Force Base

Cocoa Beach, Florida, United States

latitude: 28-14N, longitude: 080-36W, elevation: 10 ft

Current weather observation

The report was made 49 minutes ago, at 08:56 UTC
Wind 9 mph from the South
Temperature 72°F
Humidity 83%
Pressure 30.06 in. Hg
Visibility: 10 miles
Clear sky

METAR: KCOF 010856Z AUTO 18008KT 10SM CLR 22/19 A3006 RMK AO2 SLP184 T02230187 57013 $

Time: 04:45 (09:45 UTC)

Forecast

The report was made 11 hours and 55 minutes ago, at 21:50 UTC
Forecast valid from 28 at 21 UTC to 02 at 01 UTC
Wind 13 mph from the Southeast
Visibility 6.2 miles or more
Few clouds at a height of 3000 ft
Becoming
from 01 at 03 UTC to 01 at 04 UTC
Wind 7 mph from the South
Visibility: 364 ft
Clear sky

TAF: KCOF 282150Z 2821/0201 14011KT 9999 FEW030 QNH3010INS BECMG 0103/0104 18006KT 9999 SKC QNH3000INS TX29/0119Z TN19/0111Z LAST NO AMDS AFT 2822 NEXT 0111

Weather observations and forecasts of more than 4000 airports (METAR and TAF reports).

The available stations are represented by yellow and red dots on the map.

Hover mouse over dot to see the name of the station.

Then click to see weather observations and forecasts.

To change the map : click on the green buttons with a black cross to zoom in, on the green button with a dash to zoom out, or on the green arrows for adjacent maps.


METAR-TAF: